sensor_id;sensor_type;location;lat;lon;timestamp;pressure;altitude;pressure_sealevel;temperature;humidity
75409;BME280;63979;55.644;37.734;2024-01-30T00:01:00;101364.88;;;0.04;76.27
75409;BME280;63979;55.644;37.734;2024-01-30T00:06:03;101364.00;;;0.05;76.59
75409;BME280;63979;55.644;37.734;2024-01-30T00:11:03;101364.88;;;0.05;76.60
75409;BME280;63979;55.644;37.734;2024-01-30T00:16:04;101381.47;;;0.16;75.90
75409;BME280;63979;55.644;37.734;2024-01-30T00:21:05;101352.56;;;0.28;75.49
75409;BME280;63979;55.644;37.734;2024-01-30T00:26:07;101375.31;;;0.42;74.89
75409;BME280;63979;55.644;37.734;2024-01-30T00:31:08;101383.19;;;0.29;75.08
75409;BME280;63979;55.644;37.734;2024-01-30T00:36:13;101364.84;;;0.14;76.15
75409;BME280;63979;55.644;37.734;2024-01-30T00:41:13;101369.22;;;0.18;75.92
75409;BME280;63979;55.644;37.734;2024-01-30T00:46:15;101360.47;;;0.21;76.19
75409;BME280;63979;55.644;37.734;2024-01-30T00:51:15;101351.72;;;0.16;76.12
75409;BME280;63979;55.644;37.734;2024-01-30T00:56:16;101363.06;;;0.25;75.61
75409;BME280;63979;55.644;37.734;2024-01-30T01:01:19;101340.31;;;0.24;75.66
75409;BME280;63979;55.644;37.734;2024-01-30T01:06:20;101349.06;;;0.36;75.53
75409;BME280;63979;55.644;37.734;2024-01-30T01:11:20;101356.06;;;0.37;76.14
75409;BME280;63979;55.644;37.734;2024-01-30T01:16:21;101354.31;;;0.29;75.76
75409;BME280;63979;55.644;37.734;2024-01-30T01:21:22;101343.81;;;0.36;75.79
75409;BME280;63979;55.644;37.734;2024-01-30T01:26:23;101352.56;;;0.38;75.53
75409;BME280;63979;55.644;37.734;2024-01-30T01:31:24;101338.53;;;0.34;76.15
75409;BME280;63979;55.644;37.734;2024-01-30T01:36:25;101342.06;;;0.42;75.71
75409;BME280;63979;55.644;37.734;2024-01-30T01:41:30;101333.31;;;0.37;75.71
75409;BME280;63979;55.644;37.734;2024-01-30T01:46:33;101335.88;;;0.55;75.66
75409;BME280;63979;55.644;37.734;2024-01-30T01:51:36;101333.25;;;0.55;75.19
75409;BME280;63979;55.644;37.734;2024-01-30T01:56:37;101330.63;;;0.52;75.48
75409;BME280;63979;55.644;37.734;2024-01-30T02:01:39;101258.09;;;0.13;75.31
75409;BME280;63979;55.644;37.734;2024-01-30T02:06:43;101329.75;;;0.52;75.65
75409;BME280;63979;55.644;37.734;2024-01-30T02:11:45;101283.41;;;0.29;75.78
75409;BME280;63979;55.644;37.734;2024-01-30T02:16:46;101309.56;;;0.65;75.10
75409;BME280;63979;55.644;37.734;2024-01-30T02:21:46;101318.31;;;0.70;74.97
75409;BME280;63979;55.644;37.734;2024-01-30T02:26:47;101312.19;;;0.71;74.87
75409;BME280;63979;55.644;37.734;2024-01-30T02:31:48;101303.31;;;0.91;74.52
75409;BME280;63979;55.644;37.734;2024-01-30T02:36:49;101291.91;;;0.91;74.30
75409;BME280;63979;55.644;37.734;2024-01-30T02:41:50;101305.88;;;1.02;74.20
75409;BME280;63979;55.644;37.734;2024-01-30T02:46:50;101315.44;;;1.17;74.20
75409;BME280;63979;55.644;37.734;2024-01-30T02:51:53;101307.63;;;1.06;73.75
75409;BME280;63979;55.644;37.734;2024-01-30T02:56:54;101282.22;;;1.01;74.06
75409;BME280;63979;55.644;37.734;2024-01-30T03:01:55;101308.47;;;1.10;73.82
75409;BME280;63979;55.644;37.734;2024-01-30T03:06:56;101283.84;;;1.23;73.62
75409;BME280;63979;55.644;37.734;2024-01-30T03:11:57;101310.97;;;1.28;73.52
75409;BME280;63979;55.644;37.734;2024-01-30T03:16:58;101303.16;;;1.16;73.85
75409;BME280;63979;55.644;37.734;2024-01-30T03:21:59;101323.97;;;1.52;73.17
75409;BME280;63979;55.644;37.734;2024-01-30T03:27:00;101340.66;;;1.50;73.07
75409;BME280;63979;55.644;37.734;2024-01-30T03:32:02;101325.66;;;1.60;72.69
75409;BME280;63979;55.644;37.734;2024-01-30T03:37:04;101329.06;;;1.72;72.64
75409;BME280;63979;55.644;37.734;2024-01-30T03:42:05;101332.50;;;1.82;72.27
75409;BME280;63979;55.644;37.734;2024-01-30T03:47:06;101316.78;;;1.70;72.58
75409;BME280;63979;55.644;37.734;2024-01-30T03:52:06;101322.75;;;1.92;71.90
75409;BME280;63979;55.644;37.734;2024-01-30T03:57:07;101338.47;;;2.01;71.67
75409;BME280;63979;55.644;37.734;2024-01-30T04:02:09;101313.09;;;1.92;71.74
75409;BME280;63979;55.644;37.734;2024-01-30T04:07:10;101329.84;;;1.85;72.29
75409;BME280;63979;55.644;37.734;2024-01-30T04:12:11;101342.88;;;1.99;72.29
75409;BME280;63979;55.644;37.734;2024-01-30T04:17:12;101340.16;;;2.08;71.75
75409;BME280;63979;55.644;37.734;2024-01-30T04:22:13;101338.25;;;2.25;71.22
75409;BME280;63979;55.644;37.734;2024-01-30T04:27:14;101333.91;;;2.19;71.16
75409;BME280;63979;55.644;37.734;2024-01-30T04:32:15;101335.59;;;2.27;71.02
75409;BME280;63979;55.644;37.734;2024-01-30T04:37:15;101314.63;;;2.17;71.73
75409;BME280;63979;55.644;37.734;2024-01-30T04:42:17;101320.84;;;2.09;72.37
75409;BME280;63979;55.644;37.734;2024-01-30T04:47:18;101321.56;;;2.23;71.77
75409;BME280;63979;55.644;37.734;2024-01-30T04:52:19;101325.97;;;2.23;71.68
75409;BME280;63979;55.644;37.734;2024-01-30T04:57:22;101330.38;;;2.22;72.27
75409;BME280;63979;55.644;37.734;2024-01-30T05:02:23;101322.50;;;2.21;71.94
75409;BME280;63979;55.644;37.734;2024-01-30T05:07:24;101328.56;;;2.27;72.02
75409;BME280;63979;55.644;37.734;2024-01-30T05:12:26;101294.41;;;2.19;72.17
75409;BME280;63979;55.644;37.734;2024-01-30T05:17:45;101339.94;;;2.31;71.98
75409;BME280;63979;55.644;37.734;2024-01-30T05:22:46;101338.94;;;2.41;72.04
75409;BME280;63979;55.644;37.734;2024-01-30T05:27:47;101336.31;;;2.44;71.59
75409;BME280;63979;55.644;37.734;2024-01-30T05:32:48;101331.09;;;2.35;72.36
75409;BME280;63979;55.644;37.734;2024-01-30T05:37:50;101335.41;;;2.42;72.02
75409;BME280;63979;55.644;37.734;2024-01-30T05:42:51;101330.91;;;2.55;71.45
75409;BME280;63979;55.644;37.734;2024-01-30T05:47:52;101330.88;;;2.58;71.45
75409;BME280;63979;55.644;37.734;2024-01-30T05:52:53;101346.56;;;2.67;71.45
75409;BME280;63979;55.644;37.734;2024-01-30T05:57:54;101357.88;;;2.75;71.22
75409;BME280;63979;55.644;37.734;2024-01-30T06:02:55;101350.09;;;2.64;71.17
75409;BME280;63979;55.644;37.734;2024-01-30T06:07:56;101366.75;;;2.69;71.25
75409;BME280;63979;55.644;37.734;2024-01-30T06:12:56;101361.63;;;2.56;71.67
75409;BME280;63979;55.644;37.734;2024-01-30T06:17:57;101353.69;;;2.59;71.75
75409;BME280;63979;55.644;37.734;2024-01-30T06:22:59;101365.94;;;2.64;71.61
75409;BME280;63979;55.644;37.734;2024-01-30T06:27:59;101355.41;;;2.61;71.41
75409;BME280;63979;55.644;37.734;2024-01-30T06:33:00;101368.41;;;2.79;71.38
75409;BME280;63979;55.644;37.734;2024-01-30T06:38:01;101356.16;;;2.72;71.07
75409;BME280;63979;55.644;37.734;2024-01-30T06:43:02;101355.25;;;2.78;70.92
75409;BME280;63979;55.644;37.734;2024-01-30T06:48:03;101381.28;;;3.02;70.82
75409;BME280;63979;55.644;37.734;2024-01-30T06:53:04;101380.44;;;3.00;70.62
75409;BME280;63979;55.644;37.734;2024-01-30T06:58:05;101393.34;;;3.23;70.26
75409;BME280;63979;55.644;37.734;2024-01-30T07:03:05;101384.53;;;3.24;69.67
75409;BME280;63979;55.644;37.734;2024-01-30T07:08:07;101392.50;;;3.21;69.74
75409;BME280;63979;55.644;37.734;2024-01-30T07:13:07;101399.44;;;3.28;69.70
75409;BME280;63979;55.644;37.734;2024-01-30T07:18:10;101362.81;;;3.04;69.94
75409;BME280;63979;55.644;37.734;2024-01-30T07:23:12;101417.22;;;3.14;70.09
75409;BME280;63979;55.644;37.734;2024-01-30T07:28:14;101411.81;;;3.23;70.23
75409;BME280;63979;55.644;37.734;2024-01-30T07:33:18;101375.78;;;3.21;69.59
75409;BME280;63979;55.644;37.734;2024-01-30T07:38:19;101411.56;;;3.40;69.62
75409;BME280;63979;55.644;37.734;2024-01-30T07:43:20;101399.16;;;3.47;69.14
75409;BME280;63979;55.644;37.734;2024-01-30T07:48:21;101407.97;;;3.49;69.05
75409;BME280;63979;55.644;37.734;2024-01-30T07:53:22;101410.31;;;3.67;68.57
75409;BME280;63979;55.644;37.734;2024-01-30T07:58:23;101414.75;;;3.65;68.69
75409;BME280;63979;55.644;37.734;2024-01-30T08:03:24;101417.84;;;3.94;67.56
75409;BME280;63979;55.644;37.734;2024-01-30T08:08:25;101411.53;;;4.01;67.32
75409;BME280;63979;55.644;37.734;2024-01-30T08:13:27;101403.34;;;4.18;66.65
75409;BME280;63979;55.644;37.734;2024-01-30T08:18:28;101404.41;;;4.06;67.28
75409;BME280;63979;55.644;37.734;2024-01-30T08:23:29;101393.06;;;4.01;67.26
75409;BME280;63979;55.644;37.734;2024-01-30T08:28:30;101404.06;;;4.28;66.29
75409;BME280;63979;55.644;37.734;2024-01-30T08:33:30;101403.28;;;4.23;66.36
75409;BME280;63979;55.644;37.734;2024-01-30T08:38:31;101412.38;;;4.05;66.89
75409;BME280;63979;55.644;37.734;2024-01-30T08:43:32;101398.94;;;4.19;66.55
75409;BME280;63979;55.644;37.734;2024-01-30T08:48:33;101413.34;;;3.99;67.07
75409;BME280;63979;55.644;37.734;2024-01-30T08:53:35;101405.41;;;3.99;67.19
75409;BME280;63979;55.644;37.734;2024-01-30T08:58:36;101393.84;;;4.06;67.23
75409;BME280;63979;55.644;37.734;2024-01-30T09:03:37;101397.41;;;4.04;66.63
75409;BME280;63979;55.644;37.734;2024-01-30T09:08:40;101376.13;;;4.12;66.67
75409;BME280;63979;55.644;37.734;2024-01-30T09:13:41;101404.22;;;4.19;67.09
75409;BME280;63979;55.644;37.734;2024-01-30T09:18:42;101371.25;;;3.89;67.29
75409;BME280;63979;55.644;37.734;2024-01-30T09:23:43;101418.38;;;4.13;66.85
75409;BME280;63979;55.644;37.734;2024-01-30T09:28:44;101412.09;;;4.22;67.19
75409;BME280;63979;55.644;37.734;2024-01-30T09:33:45;101420.03;;;4.22;66.85
75409;BME280;63979;55.644;37.734;2024-01-30T09:38:48;101374.41;;;4.11;66.62
75409;BME280;63979;55.644;37.734;2024-01-30T09:43:50;101407.28;;;4.45;66.28
75409;BME280;63979;55.644;37.734;2024-01-30T09:48:52;101410.47;;;4.64;65.90
75409;BME280;63979;55.644;37.734;2024-01-30T09:53:54;101385.81;;;4.13;67.01
75409;BME280;63979;55.644;37.734;2024-01-30T09:58:55;101398.91;;;4.20;67.23
75409;BME280;63979;55.644;37.734;2024-01-30T10:03:56;101388.94;;;4.36;66.58
75409;BME280;63979;55.644;37.734;2024-01-30T10:08:57;101372.16;;;4.38;66.17
75409;BME280;63979;55.644;37.734;2024-01-30T10:13:58;101398.59;;;4.37;66.30
75409;BME280;63979;55.644;37.734;2024-01-30T10:18:59;101288.88;;;3.65;66.95
75409;BME280;63979;55.644;37.734;2024-01-30T10:23:59;101396.03;;;4.34;66.85
75409;BME280;63979;55.644;37.734;2024-01-30T10:29:01;101404.50;;;4.53;66.05
75409;BME280;63979;55.644;37.734;2024-01-30T10:34:03;101404.47;;;4.54;66.21
75409;BME280;63979;55.644;37.734;2024-01-30T10:39:05;101415.03;;;4.56;66.43
75409;BME280;63979;55.644;37.734;2024-01-30T10:44:10;101393.88;;;4.56;66.18
75409;BME280;63979;55.644;37.734;2024-01-30T10:49:12;101387.41;;;4.24;67.06
75409;BME280;63979;55.644;37.734;2024-01-30T10:54:15;101402.69;;;4.56;66.56
75409;BME280;63979;55.644;37.734;2024-01-30T10:59:18;101405.66;;;4.36;66.70
75409;BME280;63979;55.644;37.734;2024-01-30T11:04:19;101398.59;;;4.38;66.66
75409;BME280;63979;55.644;37.734;2024-01-30T11:09:21;101387.78;;;4.51;66.32
75409;BME280;63979;55.644;37.734;2024-01-30T11:14:26;101394.38;;;4.28;67.26
75409;BME280;63979;55.644;37.734;2024-01-30T11:19:30;101409.34;;;4.28;66.67
75409;BME280;63979;55.644;37.734;2024-01-30T11:24:38;101411.72;;;4.43;66.90
75409;BME280;63979;55.644;37.734;2024-01-30T11:29:40;101401.09;;;4.46;66.68
75409;BME280;63979;55.644;37.734;2024-01-30T11:34:41;101400.00;;;4.58;66.03
75409;BME280;63979;55.644;37.734;2024-01-30T11:39:43;101372.06;;;4.43;66.30
75409;BME280;63979;55.644;37.734;2024-01-30T11:44:48;101416.06;;;4.46;66.47
75409;BME280;63979;55.644;37.734;2024-01-30T11:49:48;101414.56;;;4.32;67.02
75409;BME280;63979;55.644;37.734;2024-01-30T11:54:49;101425.84;;;4.42;66.65
75409;BME280;63979;55.644;37.734;2024-01-30T11:59:50;101442.69;;;4.35;66.86
75409;BME280;63979;55.644;37.734;2024-01-30T12:04:51;101440.06;;;4.35;67.13
75409;BME280;63979;55.644;37.734;2024-01-30T12:09:53;101441.22;;;4.19;67.33
75409;BME280;63979;55.644;37.734;2024-01-30T12:14:55;101441.59;;;3.94;68.02
75409;BME280;63979;55.644;37.734;2024-01-30T12:20:13;101438.56;;;4.20;67.79
75409;BME280;63979;55.644;37.734;2024-01-30T12:25:16;101447.34;;;4.21;67.72
75409;BME280;63979;55.644;37.734;2024-01-30T12:30:19;101439.28;;;4.30;67.43
75409;BME280;63979;55.644;37.734;2024-01-30T12:35:21;101440.28;;;4.23;67.86
75409;BME280;63979;55.644;37.734;2024-01-30T12:40:24;101443.19;;;4.04;68.29
75409;BME280;63979;55.644;37.734;2024-01-30T12:45:27;101438.59;;;4.16;68.02
75409;BME280;63979;55.644;37.734;2024-01-30T12:50:27;101434.28;;;4.10;68.53
75409;BME280;63979;55.644;37.734;2024-01-30T12:55:29;101435.19;;;4.09;68.18
75409;BME280;63979;55.644;37.734;2024-01-30T13:00:31;101443.75;;;4.25;68.05
75409;BME280;63979;55.644;37.734;2024-01-30T13:05:32;101452.53;;;4.27;67.87
75409;BME280;63979;55.644;37.734;2024-01-30T13:10:32;101463.97;;;4.29;67.84
75409;BME280;63979;55.644;37.734;2024-01-30T13:15:33;101463.13;;;4.25;67.65
75409;BME280;63979;55.644;37.734;2024-01-30T13:20:34;101444.16;;;3.99;68.58
75409;BME280;63979;55.644;37.734;2024-01-30T13:25:35;101454.44;;;4.19;68.04
75409;BME280;63979;55.644;37.734;2024-01-30T13:30:36;101457.06;;;4.20;67.82
75409;BME280;63979;55.644;37.734;2024-01-30T13:35:37;101459.09;;;4.01;68.56
75409;BME280;63979;55.644;37.734;2024-01-30T13:40:38;101463.50;;;4.02;68.60
75409;BME280;63979;55.644;37.734;2024-01-30T13:45:39;101472.34;;;3.98;68.62
75409;BME280;63979;55.644;37.734;2024-01-30T13:50:42;101458.59;;;3.76;69.37
75409;BME280;63979;55.644;37.734;2024-01-30T13:55:44;101457.72;;;3.74;69.65
75409;BME280;63979;55.644;37.734;2024-01-30T14:00:45;101437.06;;;3.42;69.73
75409;BME280;63979;55.644;37.734;2024-01-30T14:05:46;101463.38;;;3.50;70.16
75409;BME280;63979;55.644;37.734;2024-01-30T14:10:47;101479.91;;;3.63;70.11
75409;BME280;63979;55.644;37.734;2024-01-30T14:15:48;101483.38;;;3.66;69.73
75409;BME280;63979;55.644;37.734;2024-01-30T14:20:50;101483.28;;;3.74;69.77
75409;BME280;63979;55.644;37.734;2024-01-30T14:25:51;101497.38;;;3.73;69.62
75409;BME280;63979;55.644;37.734;2024-01-30T14:30:53;101496.38;;;3.82;70.01
75409;BME280;63979;55.644;37.734;2024-01-30T14:35:54;101500.63;;;3.93;69.93
75409;BME280;63979;55.644;37.734;2024-01-30T14:40:54;101494.53;;;3.88;69.93
75409;BME280;63979;55.644;37.734;2024-01-30T14:45:56;101501.59;;;3.86;69.69
75409;BME280;63979;55.644;37.734;2024-01-30T14:50:57;101509.81;;;3.65;70.51
75409;BME280;63979;55.644;37.734;2024-01-30T14:55:58;101503.72;;;3.60;70.40
75409;BME280;63979;55.644;37.734;2024-01-30T15:00:59;101512.34;;;3.71;70.17
75409;BME280;63979;55.644;37.734;2024-01-30T15:06:01;101450.41;;;3.30;69.85
75409;BME280;63979;55.644;37.734;2024-01-30T15:11:07;101501.78;;;3.72;69.90
75409;BME280;63979;55.644;37.734;2024-01-30T15:16:08;101508.00;;;3.67;69.66
75409;BME280;63979;55.644;37.734;2024-01-30T15:21:09;101518.44;;;3.76;69.92
75409;BME280;63979;55.644;37.734;2024-01-30T15:26:10;101524.72;;;3.67;70.32
75409;BME280;63979;55.644;37.734;2024-01-30T15:31:11;101526.53;;;3.64;70.23
75409;BME280;63979;55.644;37.734;2024-01-30T15:36:12;101541.53;;;3.62;70.45
75409;BME280;63979;55.644;37.734;2024-01-30T15:41:14;101549.28;;;3.74;70.01
75409;BME280;63979;55.644;37.734;2024-01-30T15:46:15;101543.03;;;3.81;70.05
75409;BME280;63979;55.644;37.734;2024-01-30T15:51:15;101543.09;;;3.75;70.13
75409;BME280;63979;55.644;37.734;2024-01-30T15:56:16;101544.97;;;3.67;70.33
75409;BME280;63979;55.644;37.734;2024-01-30T16:01:17;101545.03;;;3.62;70.58
75409;BME280;63979;55.644;37.734;2024-01-30T16:06:18;101555.38;;;3.82;69.93
75409;BME280;63979;55.644;37.734;2024-01-30T16:11:19;101564.19;;;3.78;70.23
75409;BME280;63979;55.644;37.734;2024-01-30T16:16:20;101567.72;;;3.79;70.19
75409;BME280;63979;55.644;37.734;2024-01-30T16:21:21;101558.88;;;3.83;69.96
75409;BME280;63979;55.644;37.734;2024-01-30T16:26:22;101557.16;;;3.77;69.98
75409;BME280;63979;55.644;37.734;2024-01-30T16:31:23;101549.28;;;3.74;70.31
75409;BME280;63979;55.644;37.734;2024-01-30T16:36:23;101545.91;;;3.63;70.41
75409;BME280;63979;55.644;37.734;2024-01-30T16:41:25;101550.47;;;3.50;70.98
75409;BME280;63979;55.644;37.734;2024-01-30T16:46:28;101552.22;;;3.53;70.89
75409;BME280;63979;55.644;37.734;2024-01-30T16:51:29;101561.97;;;3.43;71.02
75409;BME280;63979;55.644;37.734;2024-01-30T16:56:30;101559.56;;;3.23;71.74
75409;BME280;63979;55.644;37.734;2024-01-30T17:01:30;101570.06;;;3.29;71.77
75409;BME280;63979;55.644;37.734;2024-01-30T17:06:31;101569.09;;;3.35;71.30
75409;BME280;63979;55.644;37.734;2024-01-30T17:11:32;101571.66;;;3.42;71.19
75409;BME280;63979;55.644;37.734;2024-01-30T17:16:34;101548.06;;;3.30;71.46
75409;BME280;63979;55.644;37.734;2024-01-30T17:21:35;101570.91;;;3.33;71.58
75409;BME280;63979;55.644;37.734;2024-01-30T17:26:37;101571.72;;;3.36;71.52
75409;BME280;63979;55.644;37.734;2024-01-30T17:31:38;101566.44;;;3.36;71.14
75409;BME280;63979;55.644;37.734;2024-01-30T17:36:39;101566.50;;;3.32;71.54
75409;BME280;63979;55.644;37.734;2024-01-30T17:41:40;101570.16;;;3.20;71.60
75409;BME280;63979;55.644;37.734;2024-01-30T17:46:40;101553.53;;;3.10;71.68
75409;BME280;63979;55.644;37.734;2024-01-30T17:51:42;101571.09;;;3.11;71.84
75409;BME280;63979;55.644;37.734;2024-01-30T17:56:43;101563.22;;;3.08;71.69
75409;BME280;63979;55.644;37.734;2024-01-30T18:01:47;101564.94;;;3.11;71.90
75409;BME280;63979;55.644;37.734;2024-01-30T18:06:52;101556.28;;;2.98;71.88
75409;BME280;63979;55.644;37.734;2024-01-30T18:11:54;101568.47;;;3.10;72.10
75409;BME280;63979;55.644;37.734;2024-01-30T18:16:56;101564.91;;;3.17;71.95
75409;BME280;63979;55.644;37.734;2024-01-30T18:21:57;101568.41;;;3.19;71.82
75409;BME280;63979;55.644;37.734;2024-01-30T18:26:58;101557.03;;;3.14;71.88
75409;BME280;63979;55.644;37.734;2024-01-30T18:31:59;101549.97;;;3.18;71.65
75409;BME280;63979;55.644;37.734;2024-01-30T18:37:00;101556.03;;;3.24;71.53
75409;BME280;63979;55.644;37.734;2024-01-30T18:42:01;101568.47;;;3.10;72.12
75409;BME280;63979;55.644;37.734;2024-01-30T18:47:01;101528.31;;;2.84;72.27
75409;BME280;63979;55.644;37.734;2024-01-30T18:52:02;101561.53;;;3.03;72.58
75409;BME280;63979;55.644;37.734;2024-01-30T18:57:05;101550.13;;;3.01;72.61
75409;BME280;63979;55.644;37.734;2024-01-30T19:02:06;101530.91;;;2.88;72.50
75409;BME280;63979;55.644;37.734;2024-01-30T19:07:07;101552.91;;;2.86;72.66
75409;BME280;63979;55.644;37.734;2024-01-30T19:12:08;101554.72;;;2.80;73.19
75409;BME280;63979;55.644;37.734;2024-01-30T19:17:09;101549.44;;;2.77;73.11
75409;BME280;63979;55.644;37.734;2024-01-30T19:22:10;101548.59;;;2.72;73.11
75409;BME280;63979;55.644;37.734;2024-01-30T19:27:11;101551.34;;;2.63;73.31
75409;BME280;63979;55.644;37.734;2024-01-30T19:32:12;101554.09;;;2.49;74.30
75409;BME280;63979;55.644;37.734;2024-01-30T19:37:13;101550.72;;;2.28;74.51
75409;BME280;63979;55.644;37.734;2024-01-30T19:42:13;101563.81;;;2.43;74.49
75409;BME280;63979;55.644;37.734;2024-01-30T19:47:14;101569.09;;;2.37;74.81
75409;BME280;63979;55.644;37.734;2024-01-30T19:52:15;101562.06;;;2.39;74.56
75409;BME280;63979;55.644;37.734;2024-01-30T19:57:16;101553.31;;;2.32;74.84
75409;BME280;63979;55.644;37.734;2024-01-30T20:02:17;101554.16;;;2.39;73.95
75409;BME280;63979;55.644;37.734;2024-01-30T20:07:21;101559.50;;;2.30;74.11
75409;BME280;63979;55.644;37.734;2024-01-30T20:12:22;101528.06;;;1.99;74.73
75409;BME280;63979;55.644;37.734;2024-01-30T20:17:22;101557.84;;;2.16;75.34
75409;BME280;63979;55.644;37.734;2024-01-30T20:22:24;101550.81;;;2.14;75.16
75409;BME280;63979;55.644;37.734;2024-01-30T20:27:24;101557.00;;;2.08;74.98
75409;BME280;63979;55.644;37.734;2024-01-30T20:32:27;101548.22;;;2.09;74.74
75409;BME280;63979;55.644;37.734;2024-01-30T20:37:28;101550.94;;;1.94;75.67
75409;BME280;63979;55.644;37.734;2024-01-30T20:42:29;101557.03;;;1.99;75.82
75409;BME280;63979;55.644;37.734;2024-01-30T20:47:30;101556.97;;;2.13;75.26
75409;BME280;63979;55.644;37.734;2024-01-30T20:52:31;101555.13;;;2.27;74.72
75409;BME280;63979;55.644;37.734;2024-01-30T20:57:32;101552.50;;;2.26;75.13
75409;BME280;63979;55.644;37.734;2024-01-30T21:02:33;101557.66;;;2.44;74.40
75409;BME280;63979;55.644;37.734;2024-01-30T21:07:35;101549.72;;;2.47;73.86
75409;BME280;63979;55.644;37.734;2024-01-30T21:12:37;101565.47;;;2.53;74.39
75409;BME280;63979;55.644;37.734;2024-01-30T21:17:38;101553.09;;;2.61;73.79
75409;BME280;63979;55.644;37.734;2024-01-30T21:22:39;101554.03;;;2.56;73.33
75409;BME280;63979;55.644;37.734;2024-01-30T21:27:40;101563.78;;;2.46;73.89
75409;BME280;63979;55.644;37.734;2024-01-30T21:32:41;101550.59;;;2.49;74.18
75409;BME280;63979;55.644;37.734;2024-01-30T21:37:42;101553.97;;;2.62;73.36
75409;BME280;63979;55.644;37.734;2024-01-30T21:42:43;101546.03;;;2.68;73.21
75409;BME280;63979;55.644;37.734;2024-01-30T21:47:46;101535.44;;;2.72;73.29
75409;BME280;63979;55.644;37.734;2024-01-30T21:52:47;101536.38;;;2.65;72.91
75409;BME280;63979;55.644;37.734;2024-01-30T21:57:48;101536.34;;;2.70;72.98
75409;BME280;63979;55.644;37.734;2024-01-30T22:02:49;101501.34;;;2.54;72.64
75409;BME280;63979;55.644;37.734;2024-01-30T22:07:50;101521.53;;;2.57;72.59
75409;BME280;63979;55.644;37.734;2024-01-30T22:12:51;101519.84;;;2.48;73.38
75409;BME280;63979;55.644;37.734;2024-01-30T22:17:52;101521.59;;;2.47;73.25
75409;BME280;63979;55.644;37.734;2024-01-30T22:22:53;101517.16;;;2.54;73.09
75409;BME280;63979;55.644;37.734;2024-01-30T22:27:53;101507.72;;;2.23;73.61
75409;BME280;63979;55.644;37.734;2024-01-30T22:32:54;101503.38;;;2.18;73.94
75409;BME280;63979;55.644;37.734;2024-01-30T22:37:55;101512.88;;;2.38;73.84
75409;BME280;63979;55.644;37.734;2024-01-30T22:42:56;101497.13;;;2.32;73.19
75409;BME280;63979;55.644;37.734;2024-01-30T22:47:57;101506.69;;;2.40;73.76
75409;BME280;63979;55.644;37.734;2024-01-30T22:52:58;101505.75;;;2.52;73.32
75409;BME280;63979;55.644;37.734;2024-01-30T22:57:59;101498.75;;;2.48;72.80
75409;BME280;63979;55.644;37.734;2024-01-30T23:02:59;101507.72;;;2.24;73.95
75409;BME280;63979;55.644;37.734;2024-01-30T23:08:00;101509.78;;;1.78;75.42
75409;BME280;63979;55.644;37.734;2024-01-30T23:13:01;101502.78;;;1.74;76.24
75409;BME280;63979;55.644;37.734;2024-01-30T23:18:03;101495.69;;;1.88;75.86
75409;BME280;63979;55.644;37.734;2024-01-30T23:23:04;101485.16;;;1.85;75.27
75409;BME280;63979;55.644;37.734;2024-01-30T23:28:05;101477.22;;;1.93;74.92
75409;BME280;63979;55.644;37.734;2024-01-30T23:33:06;101504.38;;;1.99;74.59
75409;BME280;63979;55.644;37.734;2024-01-30T23:38:07;101500.78;;;2.12;74.42
75409;BME280;63979;55.644;37.734;2024-01-30T23:43:08;101497.25;;;2.16;73.92
75409;BME280;63979;55.644;37.734;2024-01-30T23:48:09;101486.75;;;2.13;74.27
75409;BME280;63979;55.644;37.734;2024-01-30T23:53:10;101482.28;;;2.22;73.79
75409;BME280;63979;55.644;37.734;2024-01-30T23:58:11;101472.66;;;2.17;74.01
